Time;durP1;ratioP1;P1;durP2;ratioP2;P2;SDS_P1;SDS_P2;PMS_P1;PMS_P2;Temp;Humidity;BMP_temperature;BMP_pressure;BME280_temperature;BME280_humidity;BME280_pressure;Samples;Min_cycle;Max_cycle;Signal;HPM_P1;HPM_P2
2021/09/20 00:00:24;;;;;;;1.35;0.80;;;13.20;82.10;;;;;;5117021;28;20016;-79
2021/09/20 00:02:49;;;;;;;1.23;1.05;;;13.10;82.00;;;;;;5098575;28;20034;-79
2021/09/20 00:05:15;;;;;;;0.55;0.50;;;13.20;82.10;;;;;;5116267;28;20041;-80
2021/09/20 00:07:40;;;;;;;1.05;0.68;;;13.10;82.00;;;;;;5116743;28;20521;-80
2021/09/20 00:10:08;;;;;;;0.50;0.50;;;13.10;82.00;;;;;;5116602;28;20511;-80
2021/09/20 00:12:34;;;;;;;0.73;0.50;;;13.10;82.00;;;;;;5116528;28;20027;-80
2021/09/20 00:15:00;;;;;;;1.45;0.82;;;13.00;82.00;;;;;;5116579;28;20015;-80
2021/09/20 00:17:25;;;;;;;0.57;0.57;;;13.00;82.10;;;;;;5116576;28;20106;-80
2021/09/20 00:19:51;;;;;;;0.43;0.43;;;12.90;82.10;;;;;;5116180;28;20019;-80
2021/09/20 00:22:16;;;;;;;0.40;0.40;;;12.90;82.10;;;;;;5116582;28;20119;-80
2021/09/20 00:24:42;;;;;;;0.90;0.85;;;12.90;82.20;;;;;;5116373;28;20023;-80
2021/09/20 00:27:10;;;;;;;1.00;0.70;;;12.90;82.20;;;;;;5116188;28;20016;-79
2021/09/20 00:29:35;;;;;;;1.27;1.15;;;12.80;82.20;;;;;;5116359;28;20106;-79
2021/09/20 00:32:01;;;;;;;1.48;0.80;;;12.80;82.20;;;;;;5116309;28;20119;-79
2021/09/20 00:34:27;;;;;;;0.80;0.73;;;12.80;82.20;;;;;;5097225;28;20020;-79
2021/09/20 00:36:52;;;;;;;1.38;1.08;;;12.70;82.20;;;;;;5116266;28;20020;-79
2021/09/20 00:39:18;;;;;;;1.10;0.93;;;12.70;82.20;;;;;;5116079;28;20042;-83
2021/09/20 00:41:43;;;;;;;2.20;2.00;;;12.70;82.30;;;;;;5116138;28;20028;-79
2021/09/20 00:44:09;;;;;;;0.93;0.75;;;12.70;82.30;;;;;;5116312;28;20034;-79
2021/09/20 00:46:34;;;;;;;0.65;0.65;;;12.70;82.30;;;;;;5097714;28;20145;-79
2021/09/20 00:49:00;;;;;;;0.70;0.70;;;12.70;82.30;;;;;;5115468;28;20031;-80
2021/09/20 00:51:25;;;;;;;0.57;0.57;;;12.60;82.20;;;;;;5115854;28;20488;-80
2021/09/20 00:53:51;;;;;;;0.65;0.65;;;12.70;82.30;;;;;;5115866;28;20024;-79
2021/09/20 00:56:17;;;;;;;0.50;0.50;;;12.70;82.20;;;;;;5115728;28;20027;-80
2021/09/20 00:58:43;;;;;;;1.23;1.00;;;12.60;82.20;;;;;;5115695;28;20027;-79
2021/09/20 01:01:08;;;;;;;1.15;1.00;;;12.60;82.30;;;;;;5131494;27;20069;-79
2021/09/20 01:03:36;;;;;;;0.63;0.63;;;12.50;82.20;;;;;;5115148;28;20019;-79
2021/09/20 01:06:02;;;;;;;0.70;0.70;;;12.50;82.40;;;;;;5115689;28;20096;-79
2021/09/20 01:08:28;;;;;;;0.98;0.70;;;12.50;82.40;;;;;;5115521;28;20428;-78
2021/09/20 01:10:54;;;;;;;1.05;0.82;;;12.40;82.30;;;;;;5115275;28;20082;-79
2021/09/20 01:13:19;;;;;;;0.73;0.70;;;12.40;82.40;;;;;;5115455;28;20119;-79
2021/09/20 01:15:45;;;;;;;0.93;0.90;;;12.40;82.40;;;;;;5115356;28;20020;-79
2021/09/20 01:18:11;;;;;;;0.70;0.70;;;12.30;82.50;;;;;;5130506;27;20038;-80
2021/09/20 01:20:36;;;;;;;0.80;0.75;;;12.30;82.60;;;;;;5115305;28;20389;-79
2021/09/20 01:23:03;;;;;;;0.88;0.80;;;12.30;82.60;;;;;;5115184;28;20024;-80
2021/09/20 01:25:29;;;;;;;0.82;0.75;;;12.30;82.60;;;;;;5115240;28;20456;-79
2021/09/20 01:27:56;;;;;;;1.20;0.70;;;12.30;82.60;;;;;;5114991;28;20020;-79
2021/09/20 01:30:22;;;;;;;0.93;0.85;;;12.20;82.60;;;;;;5115088;28;20027;-79
2021/09/20 01:32:47;;;;;;;0.82;0.80;;;12.20;82.50;;;;;;5114598;28;20137;-79
2021/09/20 01:35:16;;;;;;;0.80;0.80;;;12.20;82.60;;;;;;5115060;28;20019;-80
2021/09/20 01:37:41;;;;;;;1.25;1.02;;;12.20;82.60;;;;;;5114614;28;20043;-80
2021/09/20 01:40:08;;;;;;;0.60;0.60;;;12.10;82.60;;;;;;5114967;28;20015;-80
2021/09/20 01:42:33;;;;;;;1.00;0.93;;;12.10;82.60;;;;;;5114817;28;20106;-80
2021/09/20 01:44:59;;;;;;;0.90;0.73;;;12.10;82.60;;;;;;5114060;28;20024;-79
2021/09/20 01:47:24;;;;;;;0.70;0.60;;;12.10;82.60;;;;;;5095959;28;20026;-79
2021/09/20 01:49:50;;;;;;;1.20;0.98;;;12.00;82.60;;;;;;5130621;27;20019;-78
2021/09/20 01:52:16;;;;;;;1.05;0.95;;;12.10;82.70;;;;;;5114608;28;20044;-79
2021/09/20 01:54:42;;;;;;;0.70;0.70;;;12.00;82.60;;;;;;5114878;28;20069;-79
2021/09/20 01:57:07;;;;;;;0.95;0.57;;;12.00;82.60;;;;;;5114595;28;20572;-79
2021/09/20 01:59:33;;;;;;;0.85;0.85;;;12.00;82.60;;;;;;5114563;28;20024;-80
2021/09/20 02:01:58;;;;;;;0.52;0.52;;;12.00;82.50;;;;;;5113994;28;20387;-79
2021/09/20 02:04:24;;;;;;;0.95;0.70;;;12.00;82.50;;;;;;5096322;28;20198;-80
2021/09/20 02:06:50;;;;;;;0.95;0.80;;;12.00;82.50;;;;;;5114394;28;20094;-79
2021/09/20 02:09:16;;;;;;;0.45;0.45;;;12.00;82.50;;;;;;5114263;28;20047;-77
2021/09/20 02:11:42;;;;;;;1.52;1.02;;;11.90;82.50;;;;;;5114274;28;20026;-79
2021/09/20 02:14:08;;;;;;;0.98;0.88;;;11.90;82.50;;;;;;5114218;28;20480;-79
2021/09/20 02:16:34;;;;;;;1.10;1.00;;;11.90;82.50;;;;;;5113708;28;20019;-79
2021/09/20 02:19:00;;;;;;;1.08;0.80;;;11.90;82.50;;;;;;5114057;28;20034;-79
2021/09/20 02:21:25;;;;;;;1.20;0.80;;;11.90;82.50;;;;;;5130029;27;20372;-79
2021/09/20 02:23:51;;;;;;;1.58;1.00;;;11.90;82.50;;;;;;5130022;27;20368;-79
2021/09/20 02:26:17;;;;;;;0.85;0.63;;;11.90;82.50;;;;;;5114175;28;20054;-79
2021/09/20 02:28:42;;;;;;;0.98;0.68;;;11.90;82.50;;;;;;5114081;28;20361;-80
2021/09/20 02:31:09;;;;;;;0.85;0.73;;;11.90;82.40;;;;;;5113314;28;20499;-79
2021/09/20 02:33:36;;;;;;;0.68;0.55;;;11.90;82.30;;;;;;5095761;28;20086;-80
2021/09/20 02:36:03;;;;;;;0.50;0.50;;;11.90;82.30;;;;;;5113883;28;20031;-80
2021/09/20 02:38:29;;;;;;;1.27;0.80;;;11.90;82.30;;;;;;5113785;28;20387;-80
2021/09/20 02:40:55;;;;;;;1.50;1.40;;;11.90;82.30;;;;;;5095530;28;20046;-79
2021/09/20 02:43:21;;;;;;;0.77;0.70;;;11.90;82.30;;;;;;5095577;28;20023;-78
2021/09/20 02:45:47;;;;;;;1.23;0.75;;;11.80;82.10;;;;;;5113408;28;20020;-79
2021/09/20 02:48:12;;;;;;;0.65;0.65;;;11.90;82.10;;;;;;5095519;28;20047;-80
2021/09/20 02:50:38;;;;;;;0.68;0.68;;;11.80;82.10;;;;;;5095461;28;20043;-80
2021/09/20 02:53:05;;;;;;;2.15;1.05;;;11.90;82.20;;;;;;5113627;28;20098;-79
2021/09/20 02:55:31;;;;;;;0.93;0.80;;;11.80;82.10;;;;;;5113738;28;20022;-79
2021/09/20 02:57:57;;;;;;;0.85;0.77;;;11.80;82.20;;;;;;5112527;28;20059;-79
2021/09/20 03:00:23;;;;;;;0.80;0.80;;;11.80;82.30;;;;;;5094851;28;20055;-81
2021/09/20 03:02:48;;;;;;;0.68;0.63;;;11.70;82.30;;;;;;5113677;28;20027;-80
2021/09/20 03:05:14;;;;;;;0.60;0.50;;;11.70;82.30;;;;;;5095281;28;20026;-79
2021/09/20 03:07:39;;;;;;;1.33;0.70;;;11.80;82.30;;;;;;5113809;28;20023;-79
2021/09/20 03:10:05;;;;;;;0.30;0.30;;;11.80;82.20;;;;;;5113248;28;20047;-80
2021/09/20 03:12:31;;;;;;;1.17;0.85;;;11.70;82.10;;;;;;5095212;28;20468;-80
2021/09/20 03:14:56;;;;;;;0.40;0.40;;;11.70;82.10;;;;;;5094781;28;20031;-78
2021/09/20 03:17:22;;;;;;;0.85;0.85;;;11.70;82.20;;;;;;5095191;28;20026;-79
2021/09/20 03:19:47;;;;;;;1.10;1.00;;;11.70;82.20;;;;;;5113478;28;20396;-79
2021/09/20 03:22:13;;;;;;;0.85;0.73;;;11.70;82.20;;;;;;5129227;28;20027;-79
2021/09/20 03:24:38;;;;;;;0.30;0.30;;;11.70;82.20;;;;;;5129136;28;20110;-79
2021/09/20 03:27:07;;;;;;;0.77;0.65;;;11.60;82.10;;;;;;5095228;28;20020;-79
2021/09/20 03:29:32;;;;;;;0.50;0.50;;;11.60;82.80;;;;;;5112906;28;20023;-80
2021/09/20 03:31:58;;;;;;;1.05;0.60;;;11.60;82.20;;;;;;5113393;28;20073;-79
2021/09/20 03:34:24;;;;;;;0.85;0.85;;;11.60;82.20;;;;;;5094981;28;20027;-81
2021/09/20 03:36:49;;;;;;;0.45;0.45;;;11.60;82.20;;;;;;5113208;28;20461;-80
2021/09/20 03:39:15;;;;;;;0.30;0.30;;;11.60;82.20;;;;;;5128997;28;20526;-80
2021/09/20 03:41:41;;;;;;;0.68;0.55;;;11.60;82.20;;;;;;5113332;28;20042;-79
2021/09/20 03:44:07;;;;;;;0.68;0.68;;;11.60;82.20;;;;;;5094547;28;20396;-79
2021/09/20 03:46:32;;;;;;;0.35;0.35;;;11.60;82.20;;;;;;5113266;28;20069;-78
2021/09/20 03:48:58;;;;;;;0.68;0.57;;;11.50;82.30;;;;;;5113260;28;20026;-80
2021/09/20 03:51:23;;;;;;;0.68;0.68;;;11.50;82.30;;;;;;5094938;28;20023;-80
2021/09/20 03:53:49;;;;;;;0.93;0.60;;;11.50;82.40;;;;;;5094931;28;20112;-80
2021/09/20 03:56:14;;;;;;;0.90;0.85;;;11.50;82.40;;;;;;5113212;28;20536;-80
2021/09/20 03:58:40;;;;;;;0.45;0.40;;;11.40;82.40;;;;;;5112449;28;20039;-80
2021/09/20 04:01:05;;;;;;;1.50;1.25;;;11.40;82.40;;;;;;5113157;28;20016;-79
2021/09/20 04:03:31;;;;;;;1.00;0.73;;;11.50;82.50;;;;;;5094857;28;20520;-79
2021/09/20 04:05:57;;;;;;;0.85;0.85;;;11.50;82.40;;;;;;5113077;28;20023;-79
2021/09/20 04:08:27;;;;;;;0.70;0.60;;;11.40;82.40;;;;;;5113903;28;20024;-80
2021/09/20 04:10:53;;;;;;;0.63;0.60;;;11.40;82.40;;;;;;5116900;28;20049;-79
2021/09/20 04:13:19;;;;;;;0.50;0.50;;;11.40;82.40;;;;;;5116165;28;20032;-79
2021/09/20 04:15:44;;;;;;;0.52;0.50;;;11.40;82.40;;;;;;5116758;28;20023;-79
2021/09/20 04:18:10;;;;;;;0.60;0.60;;;11.40;82.40;;;;;;5116616;28;20031;-79
2021/09/20 04:20:35;;;;;;;0.57;0.57;;;11.40;82.50;;;;;;5116559;28;20028;-80
2021/09/20 04:23:01;;;;;;;1.35;0.93;;;11.40;82.50;;;;;;5116596;28;20024;-80
2021/09/20 04:25:27;;;;;;;1.02;0.45;;;11.30;82.50;;;;;;5116421;28;20024;-78
2021/09/20 04:27:52;;;;;;;1.10;1.02;;;11.30;82.40;;;;;;5115985;28;20369;-79
2021/09/20 04:30:18;;;;;;;0.75;0.70;;;11.30;83.10;;;;;;5116248;28;20016;-80
2021/09/20 04:32:44;;;;;;;1.15;0.73;;;11.30;82.60;;;;;;5116367;28;20068;-79
2021/09/20 04:35:11;;;;;;;1.33;0.70;;;11.30;82.50;;;;;;5116289;28;20016;-79
2021/09/20 04:37:37;;;;;;;1.27;0.90;;;11.30;82.50;;;;;;5116027;28;20039;-79
2021/09/20 04:40:05;;;;;;;0.95;0.85;;;11.30;82.50;;;;;;5116245;28;20483;-79
2021/09/20 04:42:30;;;;;;;1.00;0.95;;;11.30;82.50;;;;;;5097292;28;20106;-79
2021/09/20 04:44:56;;;;;;;1.15;1.08;;;11.30;82.40;;;;;;5116035;28;20098;-79
2021/09/20 04:47:22;;;;;;;0.70;0.70;;;11.30;82.40;;;;;;5115921;28;20031;-79
2021/09/20 04:49:47;;;;;;;0.50;0.50;;;11.30;83.10;;;;;;5097667;28;20020;-79
2021/09/20 04:52:13;;;;;;;0.65;0.55;;;11.30;82.50;;;;;;5116009;28;20460;-79
2021/09/20 04:54:38;;;;;;;1.38;0.93;;;11.30;82.60;;;;;;5097554;28;20047;-79
2021/09/20 04:57:04;;;;;;;0.45;0.45;;;11.30;82.60;;;;;;5115296;28;20468;-79
2021/09/20 04:59:29;;;;;;;0.45;0.35;;;11.30;82.50;;;;;;5097340;28;20063;-79
2021/09/20 05:01:55;;;;;;;1.10;1.00;;;11.30;82.50;;;;;;5115713;28;20088;-79
2021/09/20 05:04:20;;;;;;;0.80;0.80;;;11.30;82.50;;;;;;5115793;28;20059;-80
2021/09/20 05:06:46;;;;;;;0.80;0.80;;;11.30;82.60;;;;;;5115736;28;20469;-79
2021/09/20 05:09:12;;;;;;;0.95;0.75;;;11.30;82.70;;;;;;5115412;28;20055;-79
2021/09/20 05:11:38;;;;;;;0.47;0.45;;;11.30;82.70;;;;;;5096783;28;20496;-79
2021/09/20 05:14:04;;;;;;;0.55;0.55;;;11.30;82.70;;;;;;5115344;28;20094;-80
2021/09/20 05:16:30;;;;;;;0.50;0.50;;;11.30;82.70;;;;;;5115405;28;20023;-81
2021/09/20 05:18:55;;;;;;;1.50;0.93;;;11.30;82.70;;;;;;5115440;28;20038;-77
2021/09/20 05:21:21;;;;;;;0.75;0.75;;;11.30;82.70;;;;;;5114397;28;20020;-76
2021/09/20 05:23:47;;;;;;;1.67;1.15;;;11.30;82.80;;;;;;5115165;28;20051;-77
2021/09/20 05:26:13;;;;;;;0.65;0.65;;;11.20;82.80;;;;;;5096311;28;20372;-79
2021/09/20 05:28:38;;;;;;;1.23;0.63;;;11.20;82.80;;;;;;5115278;28;20031;-78
2021/09/20 05:31:04;;;;;;;0.80;0.80;;;11.30;82.90;;;;;;5115038;28;20081;-80
2021/09/20 05:33:34;;;;;;;1.25;0.90;;;11.30;82.90;;;;;;5115004;28;20023;-79
2021/09/20 05:36:02;;;;;;;1.02;0.60;;;11.30;82.90;;;;;;5114839;28;20024;-78
2021/09/20 05:38:27;;;;;;;0.95;0.80;;;11.30;82.90;;;;;;5114649;28;20472;-82
2021/09/20 05:40:53;;;;;;;0.98;0.70;;;11.30;82.90;;;;;;5115160;28;20019;-84
2021/09/20 05:43:18;;;;;;;1.00;0.88;;;11.30;83.50;;;;;;5115558;28;20102;-85
2021/09/20 05:45:44;;;;;;;1.38;0.93;;;11.30;82.90;;;;;;5097063;28;20110;-84
2021/09/20 05:48:10;;;;;;;0.93;0.93;;;11.30;82.90;;;;;;5115052;28;20024;-83
2021/09/20 05:50:35;;;;;;;1.10;0.73;;;11.30;82.90;;;;;;5115290;28;20020;-84
2021/09/20 05:53:01;;;;;;;1.25;0.90;;;11.30;83.00;;;;;;5131220;27;20444;-86
2021/09/20 05:55:27;;;;;;;1.30;1.00;;;11.30;83.00;;;;;;5097455;28;20073;-84
2021/09/20 05:57:53;;;;;;;0.85;0.80;;;11.30;83.00;;;;;;5096476;28;20028;-83
2021/09/20 06:00:19;;;;;;;1.27;0.65;;;11.30;83.00;;;;;;5114803;28;20372;-85
2021/09/20 06:02:45;;;;;;;0.70;0.70;;;11.30;83.00;;;;;;5096734;28;20016;-85
2021/09/20 06:05:13;;;;;;;1.67;1.38;;;11.30;83.00;;;;;;5096677;28;20039;-85
2021/09/20 06:07:38;;;;;;;1.30;1.05;;;11.40;83.00;;;;;;5114259;28;20400;-84
2021/09/20 06:10:05;;;;;;;0.73;0.73;;;11.40;83.00;;;;;;5114501;28;20036;-81
2021/09/20 06:12:31;;;;;;;0.88;0.85;;;11.30;82.90;;;;;;5114598;28;20015;-82
2021/09/20 06:14:57;;;;;;;0.93;0.80;;;11.40;82.90;;;;;;5114223;28;20099;-82
2021/09/20 06:17:22;;;;;;;0.90;0.85;;;11.40;82.90;;;;;;5114392;28;20027;-84
2021/09/20 06:19:48;;;;;;;0.65;0.65;;;11.40;82.80;;;;;;5096328;28;20035;-84
2021/09/20 06:22:14;;;;;;;1.58;1.23;;;11.50;82.90;;;;;;5114159;28;20024;-82
2021/09/20 06:24:39;;;;;;;1.27;1.20;;;11.50;82.80;;;;;;5115821;28;20024;-83
2021/09/20 06:27:05;;;;;;;1.35;1.02;;;11.50;82.80;;;;;;5116666;28;20365;-84
2021/09/20 06:29:31;;;;;;;1.67;1.15;;;11.60;82.80;;;;;;5096069;28;20015;-83
2021/09/20 06:31:57;;;;;;;1.60;1.05;;;11.60;82.80;;;;;;5129714;27;20039;-83
2021/09/20 06:34:24;;;;;;;1.52;1.10;;;11.60;82.80;;;;;;5114276;28;20073;-83
2021/09/20 06:36:50;;;;;;;2.00;0.80;;;11.70;82.80;;;;;;5113813;28;20024;-84
2021/09/20 06:39:16;;;;;;;1.38;1.00;;;11.80;82.80;;;;;;5114057;28;20031;-83
2021/09/20 06:41:41;;;;;;;1.48;1.02;;;11.80;82.60;;;;;;5113718;28;20072;-84
2021/09/20 06:44:07;;;;;;;2.28;1.52;;;11.90;82.70;;;;;;5129846;27;20029;-84
2021/09/20 06:46:35;;;;;;;1.88;1.25;;;12.00;82.70;;;;;;5095883;28;20104;-83
2021/09/20 06:49:01;;;;;;;2.45;1.27;;;12.00;82.70;;;;;;5114326;28;20020;-85
2021/09/20 06:51:26;;;;;;;2.03;1.30;;;12.10;82.70;;;;;;5113736;28;20027;-85
2021/09/20 06:53:52;;;;;;;1.52;1.10;;;12.20;82.60;;;;;;5129970;27;20028;-84
2021/09/20 06:56:18;;;;;;;2.28;0.88;;;12.20;82.50;;;;;;5114061;28;20092;-84
2021/09/20 06:58:43;;;;;;;1.00;0.90;;;12.30;82.40;;;;;;5113929;28;20042;-84
2021/09/20 07:01:09;;;;;;;1.67;1.40;;;12.40;82.30;;;;;;5114062;28;20091;-85
2021/09/20 07:03:35;;;;;;;1.15;0.80;;;12.40;82.30;;;;;;5114102;28;20422;-84
2021/09/20 07:06:00;;;;;;;0.98;0.98;;;12.50;82.20;;;;;;5113767;28;20461;-85
2021/09/20 07:08:26;;;;;;;2.35;1.52;;;12.60;82.20;;;;;;5113733;28;20027;-85
2021/09/20 07:10:52;;;;;;;1.17;1.08;;;12.60;82.20;;;;;;5113804;28;20492;-84
2021/09/20 07:13:17;;;;;;;1.40;1.30;;;12.70;82.10;;;;;;5113680;28;20020;-87
2021/09/20 07:15:43;;;;;;;2.03;1.33;;;12.80;82.00;;;;;;5113987;28;20027;-84
2021/09/20 07:18:08;;;;;;;2.20;1.55;;;12.80;81.90;;;;;;5095563;28;20039;-84
2021/09/20 07:20:37;;;;;;;1.67;1.30;;;12.90;82.00;;;;;;5113394;28;20098;-84
2021/09/20 07:23:03;;;;;;;1.65;1.38;;;13.00;81.90;;;;;;5113920;28;20047;-86
2021/09/20 07:25:28;;;;;;;3.25;1.60;;;13.10;81.80;;;;;;5114222;28;20518;-86
2021/09/20 07:27:54;;;;;;;0.98;0.98;;;13.10;81.80;;;;;;5114050;28;20081;-85
2021/09/20 07:30:20;;;;;;;1.98;1.23;;;13.10;81.80;;;;;;5096888;28;20527;-85
2021/09/20 07:32:48;;;;;;;1.27;1.17;;;13.20;81.80;;;;;;5114037;28;20012;-84
2021/09/20 07:35:16;;;;;;;1.60;1.15;;;13.30;81.80;;;;;;5113542;28;20091;-87
2021/09/20 07:37:43;;;;;;;1.20;1.10;;;13.30;81.70;;;;;;5113994;28;20468;-86
2021/09/20 07:40:10;;;;;;;1.80;1.20;;;13.40;81.60;;;;;;5095440;28;20460;-85
2021/09/20 07:42:36;;;;;;;1.33;1.25;;;13.40;81.50;;;;;;5113913;28;20028;-86
2021/09/20 07:45:02;;;;;;;2.50;1.60;;;13.40;81.60;;;;;;5118311;28;20020;-85
2021/09/20 07:47:27;;;;;;;1.63;1.40;;;13.50;81.60;;;;;;5103645;28;20081;-90
2021/09/20 07:49:53;;;;;;;1.67;1.55;;;13.60;81.60;;;;;;5117505;28;20031;-85
2021/09/20 07:52:18;;;;;;;1.55;1.00;;;13.60;81.50;;;;;;5117608;28;20027;-85
2021/09/20 07:54:44;;;;;;;2.05;1.70;;;13.60;81.50;;;;;;5117450;28;20020;-85
2021/09/20 07:57:10;;;;;;;2.40;1.48;;;13.60;81.40;;;;;;5117746;28;20023;-85
2021/09/20 07:59:35;;;;;;;1.60;1.50;;;13.70;81.40;;;;;;5117404;28;20388;-86
2021/09/20 08:02:01;;;;;;;1.02;0.93;;;13.80;81.30;;;;;;5099280;28;20080;-85
2021/09/20 08:04:26;;;;;;;1.95;1.48;;;13.80;81.20;;;;;;5116862;28;20070;-87
2021/09/20 08:06:52;;;;;;;2.15;1.60;;;13.90;81.10;;;;;;5099063;28;20533;-84
2021/09/20 08:09:17;;;;;;;1.73;1.20;;;14.00;81.20;;;;;;5117037;28;20083;-86
2021/09/20 08:11:43;;;;;;;1.55;1.45;;;14.00;81.00;;;;;;5117132;28;20023;-87
2021/09/20 08:14:08;;;;;;;2.20;1.50;;;14.10;80.90;;;;;;5117199;28;20024;-86
2021/09/20 08:16:34;;;;;;;1.50;1.27;;;14.20;81.00;;;;;;5117202;28;20020;-84
2021/09/20 08:18:59;;;;;;;1.27;1.00;;;14.20;80.90;;;;;;5116599;28;20031;-85
2021/09/20 08:21:25;;;;;;;1.33;1.20;;;14.30;80.80;;;;;;5117013;28;20016;-85
2021/09/20 08:23:50;;;;;;;1.33;1.10;;;14.40;80.70;;;;;;5117034;28;20019;-85
2021/09/20 08:26:16;;;;;;;1.13;0.95;;;14.50;80.60;;;;;;5098846;28;20118;-85
2021/09/20 08:28:41;;;;;;;1.48;1.27;;;14.60;80.40;;;;;;5116836;28;20031;-85
2021/09/20 08:31:07;;;;;;;1.52;1.40;;;14.60;80.20;;;;;;5117042;28;20023;-91
2021/09/20 08:33:33;;;;;;;1.83;1.63;;;14.70;80.30;;;;;;5116296;28;20026;-87
2021/09/20 08:35:58;;;;;;;1.52;1.33;;;14.70;80.20;;;;;;5098998;28;20016;-84
2021/09/20 08:38:24;;;;;;;1.13;0.93;;;14.70;80.30;;;;;;5116792;28;20426;-85
2021/09/20 08:40:51;;;;;;;2.03;1.52;;;14.80;80.40;;;;;;5116653;28;20199;-84
2021/09/20 08:43:16;;;;;;;1.45;1.10;;;14.80;80.20;;;;;;5116678;28;20019;-85
2021/09/20 08:45:42;;;;;;;1.00;1.00;;;14.90;80.20;;;;;;5115839;28;20019;-85
2021/09/20 08:48:08;;;;;;;1.15;1.00;;;15.00;80.10;;;;;;5115079;28;20102;-84
2021/09/20 08:50:36;;;;;;;1.35;0.90;;;15.10;80.00;;;;;;5116541;28;20026;-82
2021/09/20 08:53:04;;;;;;;1.40;1.30;;;15.20;79.90;;;;;;5116767;28;20094;-85
2021/09/20 08:55:32;;;;;;;2.08;1.40;;;15.20;79.70;;;;;;5098182;28;20030;-84
2021/09/20 08:57:58;;;;;;;1.65;1.20;;;15.30;79.80;;;;;;5098013;28;20034;-85
2021/09/20 09:00:24;;;;;;;1.75;1.30;;;15.30;79.70;;;;;;5118146;28;20019;-83
2021/09/20 09:02:49;;;;;;;2.25;1.27;;;15.40;79.60;;;;;;5097747;28;20042;-85
2021/09/20 09:05:26;;;;;;;1.40;1.20;;;15.40;79.50;;;;;;5098066;28;20015;-89
2021/09/20 09:07:57;;;;;;;1.95;1.20;;;15.50;79.40;;;;;;5115834;28;20081;-83
2021/09/20 09:10:25;;;;;;;1.40;1.30;;;15.50;79.50;;;;;;5115679;28;20069;-85
2021/09/20 09:12:52;;;;;;;1.88;1.50;;;15.60;79.50;;;;;;5115828;28;20429;-83
2021/09/20 09:15:19;;;;;;;0.90;0.80;;;15.60;79.30;;;;;;5097323;28;20464;-88
2021/09/20 09:17:49;;;;;;;1.20;1.10;;;15.60;79.30;;;;;;5097059;28;20034;-83
2021/09/20 09:20:22;;;;;;;1.98;1.30;;;15.70;79.20;;;;;;5115521;28;20024;-82
2021/09/20 09:22:49;;;;;;;1.25;1.02;;;15.80;79.10;;;;;;5117321;28;20031;-82
2021/09/20 09:25:16;;;;;;;2.10;1.10;;;15.80;79.10;;;;;;5115555;28;20073;-83
2021/09/20 09:27:43;;;;;;;1.77;1.25;;;15.90;79.10;;;;;;5115403;28;20069;-83
2021/09/20 09:30:12;;;;;;;1.88;1.23;;;15.90;78.90;;;;;;5115612;28;20023;-83
2021/09/20 09:32:39;;;;;;;1.45;1.00;;;16.00;78.90;;;;;;5096355;28;20019;-82
2021/09/20 09:35:07;;;;;;;1.05;1.00;;;16.10;78.80;;;;;;5115328;28;20488;-83
2021/09/20 09:37:38;;;;;;;1.35;1.25;;;16.10;78.70;;;;;;5115456;28;20019;-83
2021/09/20 09:40:07;;;;;;;1.27;1.05;;;16.10;78.60;;;;;;5115375;28;20023;-84
2021/09/20 09:42:32;;;;;;;0.70;0.70;;;16.20;78.50;;;;;;5115222;28;20065;-84
2021/09/20 09:45:28;;;;;;;1.42;1.10;;;16.20;78.50;;;;;;5114928;28;20027;-84
2021/09/20 09:48:16;;;;;;;1.23;0.98;;;16.30;78.50;;;;;;5115271;28;20015;-84
2021/09/20 09:50:53;;;;;;;0.73;0.70;;;16.40;78.40;;;;;;5097359;28;20122;-85
2021/09/20 09:53:30;;;;;;;1.00;1.00;;;16.50;78.20;;;;;;5115075;28;20094;-85
2021/09/20 09:55:58;;;;;;;0.93;0.90;;;16.50;77.90;;;;;;5115041;28;20028;-85
2021/09/20 09:58:25;;;;;;;0.98;0.98;;;16.50;77.90;;;;;;5115183;28;20032;-85
2021/09/20 10:00:52;;;;;;;1.33;1.17;;;16.50;78.00;;;;;;5096368;28;20468;-84
2021/09/20 10:03:17;;;;;;;1.10;1.00;;;16.60;77.90;;;;;;5115082;28;20027;-86
2021/09/20 10:05:59;;;;;;;1.00;0.90;;;16.60;77.90;;;;;;5114969;28;20016;-86
2021/09/20 10:08:26;;;;;;;1.00;0.82;;;16.60;78.00;;;;;;5115005;28;20023;-83
2021/09/20 10:10:52;;;;;;;0.88;0.88;;;16.70;77.80;;;;;;5114964;28;20040;-83
2021/09/20 10:13:17;;;;;;;1.52;0.90;;;16.70;77.70;;;;;;5114767;28;20024;-88
2021/09/20 10:15:43;;;;;;;1.25;0.93;;;16.80;77.50;;;;;;5114306;28;20016;-84
2021/09/20 10:18:10;;;;;;;1.10;1.00;;;16.80;77.40;;;;;;5114387;28;20024;-87
2021/09/20 10:20:36;;;;;;;1.10;0.98;;;16.90;77.30;;;;;;5114342;28;20047;-84
2021/09/20 10:23:02;;;;;;;0.80;0.77;;;16.90;77.20;;;;;;5114838;28;20468;-85
2021/09/20 10:25:30;;;;;;;0.70;0.70;;;17.00;77.10;;;;;;5114835;28;20047;-85
2021/09/20 10:27:57;;;;;;;0.90;0.90;;;17.20;77.00;;;;;;5114408;28;20032;-86
2021/09/20 10:30:32;;;;;;;0.68;0.68;;;17.30;76.70;;;;;;5095995;28;20018;-84
2021/09/20 10:33:05;;;;;;;1.15;0.98;;;17.40;76.50;;;;;;5114810;28;20456;-87
2021/09/20 10:35:32;;;;;;;1.02;0.93;;;17.50;76.40;;;;;;5114353;28;20472;-84
2021/09/20 10:38:25;;;;;;;1.10;0.98;;;17.50;76.30;;;;;;5114050;28;20114;-86
2021/09/20 10:41:10;;;;;;;0.70;0.63;;;17.60;76.10;;;;;;5114124;28;20024;-83
2021/09/20 10:43:41;;;;;;;0.85;0.85;;;17.60;76.20;;;;;;5113548;28;20023;-86
2021/09/20 10:46:22;;;;;;;1.60;1.00;;;17.40;76.50;;;;;;5115899;28;20087;-84
2021/09/20 10:48:50;;;;;;;0.70;0.70;;;17.40;76.60;;;;;;5114539;28;20098;-85
2021/09/20 10:51:19;;;;;;;0.80;0.80;;;17.60;76.40;;;;;;5114508;28;20404;-85
2021/09/20 10:53:46;;;;;;;1.27;1.17;;;17.80;76.10;;;;;;5114387;28;20030;-84
2021/09/20 10:56:14;;;;;;;1.05;0.95;;;18.00;75.60;;;;;;5114393;28;20019;-82
2021/09/20 10:58:55;;;;;;;2.97;1.27;;;18.30;75.20;;;;;;5115868;28;20067;-85
2021/09/20 11:01:23;;;;;;;1.05;0.95;;;18.40;74.90;;;;;;5114240;28;20032;-85
2021/09/20 11:04:26;;;;;;;0.70;0.70;;;18.60;74.80;;;;;;5114274;28;20019;-82
2021/09/20 11:07:06;;;;;;;1.42;1.33;;;18.70;74.70;;;;;;5044537;28;20119;-85
2021/09/20 11:10:03;;;;;;;1.25;0.90;;;18.60;74.60;;;;;;5095758;28;20047;-84
2021/09/20 11:12:29;;;;;;;1.23;1.13;;;18.40;75.00;;;;;;5095277;28;20043;-85
2021/09/20 11:14:57;;;;;;;1.38;0.90;;;18.10;75.60;;;;;;5114092;28;20020;-86
2021/09/20 11:17:39;;;;;;;2.00;1.53;;;18.00;76.00;;;;;;5114246;28;20074;-85
2021/09/20 11:20:25;;;;;;;1.20;1.10;;;17.80;76.20;;;;;;5117759;28;20028;-85
2021/09/20 11:23:17;;;;;;;1.20;1.10;;;17.70;76.10;;;;;;5099981;28;20472;-83
2021/09/20 11:26:02;;;;;;;1.67;1.33;;;17.80;75.80;;;;;;5100250;28;20016;-85
2021/09/20 11:28:35;;;;;;;1.25;0.85;;;17.90;76.40;;;;;;5099498;28;20019;-85
2021/09/20 11:31:01;;;;;;;1.17;1.08;;;18.20;75.30;;;;;;5099909;28;20028;-85
2021/09/20 11:33:46;;;;;;;0.82;0.80;;;18.40;74.70;;;;;;5117956;28;20519;-86
2021/09/20 11:36:22;;;;;;;0.82;0.82;;;18.60;74.30;;;;;;5117849;28;20043;-81
2021/09/20 11:38:49;;;;;;;1.20;1.10;;;18.60;74.30;;;;;;5117344;28;20031;-81
2021/09/20 11:41:20;;;;;;;1.45;1.00;;;18.50;74.40;;;;;;5116847;28;20023;-81
2021/09/20 11:43:46;;;;;;;1.55;1.30;;;18.50;74.70;;;;;;5117233;28;20015;-81
2021/09/20 11:46:17;;;;;;;1.17;0.80;;;18.40;74.80;;;;;;5117135;28;20479;-81
2021/09/20 11:48:43;;;;;;;1.42;1.02;;;18.40;74.90;;;;;;5098956;28;20485;-81
2021/09/20 11:51:08;;;;;;;1.00;0.90;;;18.30;74.90;;;;;;5098810;28;20476;-82
2021/09/20 11:53:33;;;;;;;0.82;0.80;;;18.10;75.00;;;;;;5098774;28;20373;-81
2021/09/20 11:55:59;;;;;;;1.10;1.00;;;18.10;75.30;;;;;;5116671;28;20055;-79
2021/09/20 11:58:24;;;;;;;1.35;1.08;;;18.10;75.20;;;;;;5116809;28;20034;-81
2021/09/20 12:00:50;;;;;;;1.05;1.00;;;18.00;75.10;;;;;;5116944;28;20354;-82
2021/09/20 12:03:18;;;;;;;1.30;1.17;;;18.00;75.10;;;;;;5098597;28;20019;-81
2021/09/20 12:05:46;;;;;;;1.15;1.05;;;17.90;75.10;;;;;;5098715;28;20019;-82
2021/09/20 12:08:14;;;;;;;0.82;0.82;;;17.80;75.20;;;;;;5116742;28;20028;-76
2021/09/20 12:10:52;;;;;;;1.25;1.15;;;17.80;75.30;;;;;;5116076;28;20420;-79
2021/09/20 12:13:23;;;;;;;1.25;1.00;;;17.80;75.00;;;;;;5098389;28;20400;-79
2021/09/20 12:15:52;;;;;;;0.80;0.80;;;17.70;75.10;;;;;;5116786;28;20144;-78
2021/09/20 12:18:27;;;;;;;0.77;0.68;;;17.80;75.10;;;;;;5116464;28;20023;-78
2021/09/20 12:20:58;;;;;;;0.80;0.80;;;17.90;74.90;;;;;;5116684;28;20441;-79
2021/09/20 12:23:34;;;;;;;1.40;0.90;;;18.00;74.80;;;;;;5116559;28;20015;-78
2021/09/20 12:26:02;;;;;;;1.23;0.98;;;18.10;74.50;;;;;;5097802;28;20088;-78
2021/09/20 12:28:30;;;;;;;1.08;0.95;;;18.10;74.20;;;;;;5116247;28;20073;-79
2021/09/20 12:31:11;;;;;;;1.20;0.90;;;18.20;74.20;;;;;;5115781;28;20022;-80
2021/09/20 12:33:47;;;;;;;0.60;0.60;;;18.20;74.10;;;;;;5116296;28;20601;-79
2021/09/20 12:36:21;;;;;;;0.90;0.77;;;18.20;74.10;;;;;;5116080;28;20103;-78
2021/09/20 12:39:13;;;;;;;0.80;0.80;;;18.30;74.10;;;;;;5098053;28;20035;-79
2021/09/20 12:41:41;;;;;;;0.60;0.60;;;18.30;73.90;;;;;;5116223;28;20028;-79
2021/09/20 12:44:08;;;;;;;1.33;1.23;;;18.30;74.00;;;;;;5097849;28;20019;-80
2021/09/20 12:46:36;;;;;;;0.90;0.90;;;18.20;74.10;;;;;;5116116;28;20020;-78
2021/09/20 12:49:04;;;;;;;0.80;0.80;;;18.20;74.20;;;;;;5115975;28;20031;-80